sensor_id;sensor_type;location;lat;lon;timestamp;temperature;humidity
73572;DHT22;61854;48.510;-2.770;2023-02-17T00:00:34;13.00;99.90
73572;DHT22;61854;48.510;-2.770;2023-02-17T00:03:00;13.10;99.90
73572;DHT22;61854;48.510;-2.770;2023-02-17T00:05:26;13.10;99.90
73572;DHT22;61854;48.510;-2.770;2023-02-17T00:07:53;13.10;99.90
73572;DHT22;61854;48.510;-2.770;2023-02-17T00:10:19;13.10;99.90
73572;DHT22;61854;48.510;-2.770;2023-02-17T00:12:45;13.10;99.90
73572;DHT22;61854;48.510;-2.770;2023-02-17T00:15:11;13.10;99.90
73572;DHT22;61854;48.510;-2.770;2023-02-17T00:17:36;13.00;99.90
73572;DHT22;61854;48.510;-2.770;2023-02-17T00:20:03;13.00;99.90
73572;DHT22;61854;48.510;-2.770;2023-02-17T00:22:29;13.00;99.90
73572;DHT22;61854;48.510;-2.770;2023-02-17T00:24:55;13.00;99.90
73572;DHT22;61854;48.510;-2.770;2023-02-17T00:27:20;13.00;99.90
73572;DHT22;61854;48.510;-2.770;2023-02-17T00:29:46;13.00;99.90
73572;DHT22;61854;48.510;-2.770;2023-02-17T00:32:12;12.90;99.90
73572;DHT22;61854;48.510;-2.770;2023-02-17T00:34:38;12.90;99.90
73572;DHT22;61854;48.510;-2.770;2023-02-17T00:37:03;12.90;99.90
73572;DHT22;61854;48.510;-2.770;2023-02-17T00:39:29;12.90;99.90
73572;DHT22;61854;48.510;-2.770;2023-02-17T00:41:55;12.90;99.90
73572;DHT22;61854;48.510;-2.770;2023-02-17T00:44:23;12.90;99.90
73572;DHT22;61854;48.510;-2.770;2023-02-17T00:46:49;12.90;99.90
73572;DHT22;61854;48.510;-2.770;2023-02-17T00:49:18;12.90;99.90
73572;DHT22;61854;48.510;-2.770;2023-02-17T00:51:44;12.90;99.90
73572;DHT22;61854;48.510;-2.770;2023-02-17T00:54:10;12.90;99.90
73572;DHT22;61854;48.510;-2.770;2023-02-17T00:56:36;12.90;99.90
73572;DHT22;61854;48.510;-2.770;2023-02-17T00:59:03;12.90;99.90
73572;DHT22;61854;48.510;-2.770;2023-02-17T01:01:29;12.90;99.90
73572;DHT22;61854;48.510;-2.770;2023-02-17T01:03:54;12.90;99.90
73572;DHT22;61854;48.510;-2.770;2023-02-17T01:06:33;12.90;99.90
73572;DHT22;61854;48.510;-2.770;2023-02-17T01:08:59;12.90;99.90
73572;DHT22;61854;48.510;-2.770;2023-02-17T01:11:28;12.90;99.90
73572;DHT22;61854;48.510;-2.770;2023-02-17T01:13:54;12.90;99.90
73572;DHT22;61854;48.510;-2.770;2023-02-17T01:16:32;12.90;99.90
73572;DHT22;61854;48.510;-2.770;2023-02-17T01:19:04;12.90;99.90
73572;DHT22;61854;48.510;-2.770;2023-02-17T01:21:31;12.90;99.90
73572;DHT22;61854;48.510;-2.770;2023-02-17T01:23:58;12.90;99.90
73572;DHT22;61854;48.510;-2.770;2023-02-17T01:26:26;12.90;99.90
73572;DHT22;61854;48.510;-2.770;2023-02-17T01:28:53;12.90;99.90
73572;DHT22;61854;48.510;-2.770;2023-02-17T01:31:20;12.90;99.90
73572;DHT22;61854;48.510;-2.770;2023-02-17T01:33:46;12.90;99.90
73572;DHT22;61854;48.510;-2.770;2023-02-17T01:36:14;12.90;99.90
73572;DHT22;61854;48.510;-2.770;2023-02-17T01:38:40;12.90;99.90
73572;DHT22;61854;48.510;-2.770;2023-02-17T01:41:07;12.90;99.90
73572;DHT22;61854;48.510;-2.770;2023-02-17T01:43:33;12.90;99.90
73572;DHT22;61854;48.510;-2.770;2023-02-17T01:46:01;12.90;99.90
73572;DHT22;61854;48.510;-2.770;2023-02-17T01:48:32;12.90;99.90
73572;DHT22;61854;48.510;-2.770;2023-02-17T01:51:16;13.00;99.90
73572;DHT22;61854;48.510;-2.770;2023-02-17T01:53:56;13.00;99.90
73572;DHT22;61854;48.510;-2.770;2023-02-17T01:56:23;13.00;99.90
73572;DHT22;61854;48.510;-2.770;2023-02-17T01:58:56;13.00;99.90
73572;DHT22;61854;48.510;-2.770;2023-02-17T02:01:23;13.00;99.90
73572;DHT22;61854;48.510;-2.770;2023-02-17T02:03:50;13.00;99.90
73572;DHT22;61854;48.510;-2.770;2023-02-17T02:06:20;13.00;99.90
73572;DHT22;61854;48.510;-2.770;2023-02-17T02:11:31;13.00;99.90
73572;DHT22;61854;48.510;-2.770;2023-02-17T02:13:58;13.00;99.90
73572;DHT22;61854;48.510;-2.770;2023-02-17T02:16:38;13.00;99.90
73572;DHT22;61854;48.510;-2.770;2023-02-17T02:22:17;13.00;99.90
73572;DHT22;61854;48.510;-2.770;2023-02-17T02:33:46;13.00;99.90
73572;DHT22;61854;48.510;-2.770;2023-02-17T02:36:28;13.00;99.90
73572;DHT22;61854;48.510;-2.770;2023-02-17T02:39:10;12.90;99.90
73572;DHT22;61854;48.510;-2.770;2023-02-17T02:41:58;12.90;99.90
73572;DHT22;61854;48.510;-2.770;2023-02-17T02:44:25;12.90;99.90
73572;DHT22;61854;48.510;-2.770;2023-02-17T02:47:06;12.90;99.90
73572;DHT22;61854;48.510;-2.770;2023-02-17T02:49:34;12.90;99.90
73572;DHT22;61854;48.510;-2.770;2023-02-17T02:52:17;12.90;99.90
73572;DHT22;61854;48.510;-2.770;2023-02-17T02:57:36;12.90;99.90
73572;DHT22;61854;48.510;-2.770;2023-02-17T03:00:51;12.90;99.90
73572;DHT22;61854;48.510;-2.770;2023-02-17T03:03:12;12.90;99.90
73572;DHT22;61854;48.510;-2.770;2023-02-17T03:05:54;12.90;99.90
73572;DHT22;61854;48.510;-2.770;2023-02-17T03:08:50;12.90;99.90
73572;DHT22;61854;48.510;-2.770;2023-02-17T03:11:22;12.90;99.90
73572;DHT22;61854;48.510;-2.770;2023-02-17T03:14:06;12.90;99.90
73572;DHT22;61854;48.510;-2.770;2023-02-17T03:16:33;12.90;99.90
73572;DHT22;61854;48.510;-2.770;2023-02-17T03:18:59;12.90;99.90
73572;DHT22;61854;48.510;-2.770;2023-02-17T03:21:29;12.90;99.90
73572;DHT22;61854;48.510;-2.770;2023-02-17T03:23:57;12.90;99.90
73572;DHT22;61854;48.510;-2.770;2023-02-17T03:26:23;12.90;99.90
73572;DHT22;61854;48.510;-2.770;2023-02-17T03:28:48;12.90;99.90
73572;DHT22;61854;48.510;-2.770;2023-02-17T03:31:14;12.90;99.90
73572;DHT22;61854;48.510;-2.770;2023-02-17T03:33:40;12.90;99.90
73572;DHT22;61854;48.510;-2.770;2023-02-17T03:36:06;12.90;99.90
73572;DHT22;61854;48.510;-2.770;2023-02-17T03:38:32;12.90;99.90
73572;DHT22;61854;48.510;-2.770;2023-02-17T03:40:57;12.90;99.90
73572;DHT22;61854;48.510;-2.770;2023-02-17T03:43:23;12.90;99.90
73572;DHT22;61854;48.510;-2.770;2023-02-17T03:45:48;13.00;99.90
73572;DHT22;61854;48.510;-2.770;2023-02-17T03:48:14;13.00;99.90
73572;DHT22;61854;48.510;-2.770;2023-02-17T03:50:40;13.00;99.90
73572;DHT22;61854;48.510;-2.770;2023-02-17T03:53:05;12.90;99.90
73572;DHT22;61854;48.510;-2.770;2023-02-17T03:55:31;13.00;99.90
73572;DHT22;61854;48.510;-2.770;2023-02-17T03:57:57;13.00;99.90
73572;DHT22;61854;48.510;-2.770;2023-02-17T04:00:22;13.00;99.90
73572;DHT22;61854;48.510;-2.770;2023-02-17T04:02:48;12.90;99.90
73572;DHT22;61854;48.510;-2.770;2023-02-17T04:05:14;12.90;99.90
73572;DHT22;61854;48.510;-2.770;2023-02-17T04:07:40;12.90;99.90
73572;DHT22;61854;48.510;-2.770;2023-02-17T04:10:06;12.90;99.90
73572;DHT22;61854;48.510;-2.770;2023-02-17T04:12:32;12.90;99.90
73572;DHT22;61854;48.510;-2.770;2023-02-17T04:14:57;13.00;99.90
73572;DHT22;61854;48.510;-2.770;2023-02-17T04:17:23;13.00;99.90
73572;DHT22;61854;48.510;-2.770;2023-02-17T04:19:49;13.00;99.90
73572;DHT22;61854;48.510;-2.770;2023-02-17T04:22:14;12.90;99.90
73572;DHT22;61854;48.510;-2.770;2023-02-17T04:24:40;12.80;99.90
73572;DHT22;61854;48.510;-2.770;2023-02-17T04:27:05;12.80;99.90
73572;DHT22;61854;48.510;-2.770;2023-02-17T04:29:32;12.90;99.90
73572;DHT22;61854;48.510;-2.770;2023-02-17T04:31:57;12.80;99.90
73572;DHT22;61854;48.510;-2.770;2023-02-17T04:34:23;12.80;99.90
73572;DHT22;61854;48.510;-2.770;2023-02-17T04:36:49;12.90;99.90
73572;DHT22;61854;48.510;-2.770;2023-02-17T04:39:14;12.90;99.90
73572;DHT22;61854;48.510;-2.770;2023-02-17T04:41:40;12.90;99.90
73572;DHT22;61854;48.510;-2.770;2023-02-17T04:44:05;12.90;99.90
73572;DHT22;61854;48.510;-2.770;2023-02-17T04:46:31;12.90;99.90
73572;DHT22;61854;48.510;-2.770;2023-02-17T04:48:57;12.80;99.90
73572;DHT22;61854;48.510;-2.770;2023-02-17T04:51:22;12.80;99.90
73572;DHT22;61854;48.510;-2.770;2023-02-17T04:53:48;12.80;99.90
73572;DHT22;61854;48.510;-2.770;2023-02-17T04:56:14;12.80;99.90
73572;DHT22;61854;48.510;-2.770;2023-02-17T04:58:39;12.80;99.90
73572;DHT22;61854;48.510;-2.770;2023-02-17T05:01:05;12.80;99.90
73572;DHT22;61854;48.510;-2.770;2023-02-17T05:03:31;12.80;99.90
73572;DHT22;61854;48.510;-2.770;2023-02-17T05:05:56;12.80;99.90
73572;DHT22;61854;48.510;-2.770;2023-02-17T05:08:22;12.90;99.90
73572;DHT22;61854;48.510;-2.770;2023-02-17T05:10:50;12.90;99.90
73572;DHT22;61854;48.510;-2.770;2023-02-17T05:13:16;12.90;99.90
73572;DHT22;61854;48.510;-2.770;2023-02-17T05:15:43;13.00;99.90
73572;DHT22;61854;48.510;-2.770;2023-02-17T05:18:09;13.00;99.90
73572;DHT22;61854;48.510;-2.770;2023-02-17T05:20:35;13.00;99.90
73572;DHT22;61854;48.510;-2.770;2023-02-17T05:23:01;12.90;99.90
73572;DHT22;61854;48.510;-2.770;2023-02-17T05:25:27;12.90;99.90
73572;DHT22;61854;48.510;-2.770;2023-02-17T05:27:52;12.80;99.90
73572;DHT22;61854;48.510;-2.770;2023-02-17T05:30:18;12.80;99.90
73572;DHT22;61854;48.510;-2.770;2023-02-17T05:32:44;12.80;99.90
73572;DHT22;61854;48.510;-2.770;2023-02-17T05:35:09;12.80;99.90
73572;DHT22;61854;48.510;-2.770;2023-02-17T05:37:35;12.80;99.90
73572;DHT22;61854;48.510;-2.770;2023-02-17T05:40:01;12.80;99.90
73572;DHT22;61854;48.510;-2.770;2023-02-17T05:42:29;12.90;99.90
73572;DHT22;61854;48.510;-2.770;2023-02-17T05:44:55;12.90;99.90
73572;DHT22;61854;48.510;-2.770;2023-02-17T05:47:21;12.90;99.90
73572;DHT22;61854;48.510;-2.770;2023-02-17T05:49:47;13.00;99.90
73572;DHT22;61854;48.510;-2.770;2023-02-17T05:52:13;13.00;99.90
73572;DHT22;61854;48.510;-2.770;2023-02-17T05:54:39;13.00;99.90
73572;DHT22;61854;48.510;-2.770;2023-02-17T05:57:04;12.90;99.90
73572;DHT22;61854;48.510;-2.770;2023-02-17T05:59:30;13.00;99.90
73572;DHT22;61854;48.510;-2.770;2023-02-17T06:01:56;13.00;99.90
73572;DHT22;61854;48.510;-2.770;2023-02-17T06:04:22;13.00;99.90
73572;DHT22;61854;48.510;-2.770;2023-02-17T06:06:47;12.90;99.90
73572;DHT22;61854;48.510;-2.770;2023-02-17T06:09:13;13.00;99.90
73572;DHT22;61854;48.510;-2.770;2023-02-17T06:11:39;12.90;99.90
73572;DHT22;61854;48.510;-2.770;2023-02-17T06:14:04;12.90;99.90
73572;DHT22;61854;48.510;-2.770;2023-02-17T06:16:30;12.90;99.90
73572;DHT22;61854;48.510;-2.770;2023-02-17T06:18:56;12.80;99.90
73572;DHT22;61854;48.510;-2.770;2023-02-17T06:21:24;12.80;99.90
73572;DHT22;61854;48.510;-2.770;2023-02-17T06:23:50;12.80;99.90
73572;DHT22;61854;48.510;-2.770;2023-02-17T06:26:15;12.90;99.90
73572;DHT22;61854;48.510;-2.770;2023-02-17T06:28:43;12.90;99.90
73572;DHT22;61854;48.510;-2.770;2023-02-17T06:31:08;12.80;99.90
73572;DHT22;61854;48.510;-2.770;2023-02-17T06:33:34;12.90;99.90
73572;DHT22;61854;48.510;-2.770;2023-02-17T06:36:00;12.90;99.90
73572;DHT22;61854;48.510;-2.770;2023-02-17T06:38:25;12.90;99.90
73572;DHT22;61854;48.510;-2.770;2023-02-17T06:40:52;12.90;99.90
73572;DHT22;61854;48.510;-2.770;2023-02-17T06:43:19;12.90;99.90
73572;DHT22;61854;48.510;-2.770;2023-02-17T06:45:47;12.90;99.90
73572;DHT22;61854;48.510;-2.770;2023-02-17T06:48:12;12.90;99.90
73572;DHT22;61854;48.510;-2.770;2023-02-17T06:50:38;12.80;99.90
73572;DHT22;61854;48.510;-2.770;2023-02-17T06:53:07;12.80;99.90
73572;DHT22;61854;48.510;-2.770;2023-02-17T06:55:32;12.80;99.90
73572;DHT22;61854;48.510;-2.770;2023-02-17T06:57:59;12.80;99.90
73572;DHT22;61854;48.510;-2.770;2023-02-17T07:00:26;12.80;99.90
73572;DHT22;61854;48.510;-2.770;2023-02-17T07:02:52;12.80;99.90
73572;DHT22;61854;48.510;-2.770;2023-02-17T07:05:17;12.80;99.90
73572;DHT22;61854;48.510;-2.770;2023-02-17T07:07:43;12.80;99.90
73572;DHT22;61854;48.510;-2.770;2023-02-17T07:10:09;12.80;99.90
73572;DHT22;61854;48.510;-2.770;2023-02-17T07:12:35;12.80;99.90
73572;DHT22;61854;48.510;-2.770;2023-02-17T07:15:01;12.80;99.90
73572;DHT22;61854;48.510;-2.770;2023-02-17T07:17:26;12.80;99.90
73572;DHT22;61854;48.510;-2.770;2023-02-17T07:19:52;12.80;99.90
73572;DHT22;61854;48.510;-2.770;2023-02-17T07:22:18;12.80;99.90
73572;DHT22;61854;48.510;-2.770;2023-02-17T07:24:43;12.80;99.90
73572;DHT22;61854;48.510;-2.770;2023-02-17T07:27:09;12.80;99.90
73572;DHT22;61854;48.510;-2.770;2023-02-17T07:29:34;12.80;99.90
73572;DHT22;61854;48.510;-2.770;2023-02-17T07:32:00;12.80;99.90
73572;DHT22;61854;48.510;-2.770;2023-02-17T07:34:26;12.70;99.90
73572;DHT22;61854;48.510;-2.770;2023-02-17T07:36:51;12.70;99.90
73572;DHT22;61854;48.510;-2.770;2023-02-17T07:39:17;12.80;99.90
73572;DHT22;61854;48.510;-2.770;2023-02-17T07:41:43;12.80;99.70
73572;DHT22;61854;48.510;-2.770;2023-02-17T07:44:08;12.80;99.40
73572;DHT22;61854;48.510;-2.770;2023-02-17T07:46:35;12.80;99.30
73572;DHT22;61854;48.510;-2.770;2023-02-17T07:49:01;12.80;99.40
73572;DHT22;61854;48.510;-2.770;2023-02-17T07:51:27;12.70;99.40
73572;DHT22;61854;48.510;-2.770;2023-02-17T07:53:52;12.70;99.50
73572;DHT22;61854;48.510;-2.770;2023-02-17T07:56:20;12.70;99.60
73572;DHT22;61854;48.510;-2.770;2023-02-17T07:58:47;12.70;99.70
73572;DHT22;61854;48.510;-2.770;2023-02-17T08:01:19;12.70;99.60
73572;DHT22;61854;48.510;-2.770;2023-02-17T08:03:46;12.80;99.60
73572;DHT22;61854;48.510;-2.770;2023-02-17T08:06:18;12.80;99.50
73572;DHT22;61854;48.510;-2.770;2023-02-17T08:08:44;12.80;99.30
73572;DHT22;61854;48.510;-2.770;2023-02-17T08:11:29;12.90;99.10
73572;DHT22;61854;48.510;-2.770;2023-02-17T08:14:13;12.90;99.20
73572;DHT22;61854;48.510;-2.770;2023-02-17T08:16:42;12.90;99.20
73572;DHT22;61854;48.510;-2.770;2023-02-17T08:19:08;12.90;99.20
73572;DHT22;61854;48.510;-2.770;2023-02-17T08:21:35;13.00;99.10
73572;DHT22;61854;48.510;-2.770;2023-02-17T08:24:00;13.10;98.70
73572;DHT22;61854;48.510;-2.770;2023-02-17T08:26:26;13.10;98.50
73572;DHT22;61854;48.510;-2.770;2023-02-17T08:28:52;13.20;98.60
73572;DHT22;61854;48.510;-2.770;2023-02-17T08:33:48;13.30;98.10
73572;DHT22;61854;48.510;-2.770;2023-02-17T08:36:15;13.30;97.90
73572;DHT22;61854;48.510;-2.770;2023-02-17T08:38:41;13.40;97.80
73572;DHT22;61854;48.510;-2.770;2023-02-17T08:41:15;13.40;97.60
73572;DHT22;61854;48.510;-2.770;2023-02-17T08:43:42;13.50;97.40
73572;DHT22;61854;48.510;-2.770;2023-02-17T08:46:08;13.50;97.60
73572;DHT22;61854;48.510;-2.770;2023-02-17T08:48:34;13.50;97.00
73572;DHT22;61854;48.510;-2.770;2023-02-17T08:51:01;13.50;96.70
73572;DHT22;61854;48.510;-2.770;2023-02-17T08:53:26;13.50;96.80
73572;DHT22;61854;48.510;-2.770;2023-02-17T08:55:52;13.50;96.60
73572;DHT22;61854;48.510;-2.770;2023-02-17T08:58:18;13.60;96.40
73572;DHT22;61854;48.510;-2.770;2023-02-17T09:00:43;13.50;96.20
73572;DHT22;61854;48.510;-2.770;2023-02-17T09:03:09;13.50;96.50
73572;DHT22;61854;48.510;-2.770;2023-02-17T09:05:35;13.50;96.50
73572;DHT22;61854;48.510;-2.770;2023-02-17T09:08:01;13.60;96.30
73572;DHT22;61854;48.510;-2.770;2023-02-17T09:10:27;13.50;96.40
73572;DHT22;61854;48.510;-2.770;2023-02-17T09:12:52;13.60;96.40
73572;DHT22;61854;48.510;-2.770;2023-02-17T09:15:18;13.60;96.20
73572;DHT22;61854;48.510;-2.770;2023-02-17T09:17:44;13.60;96.10
73572;DHT22;61854;48.510;-2.770;2023-02-17T09:20:10;13.60;96.20
73572;DHT22;61854;48.510;-2.770;2023-02-17T09:22:36;13.70;96.20
73572;DHT22;61854;48.510;-2.770;2023-02-17T09:25:03;13.70;96.00
73572;DHT22;61854;48.510;-2.770;2023-02-17T09:27:29;13.70;96.10
73572;DHT22;61854;48.510;-2.770;2023-02-17T09:29:54;13.70;95.90
73572;DHT22;61854;48.510;-2.770;2023-02-17T09:32:20;13.70;95.90
73572;DHT22;61854;48.510;-2.770;2023-02-17T09:34:46;13.80;95.90
73572;DHT22;61854;48.510;-2.770;2023-02-17T09:37:18;13.80;95.90
73572;DHT22;61854;48.510;-2.770;2023-02-17T09:39:45;13.90;95.70
73572;DHT22;61854;48.510;-2.770;2023-02-17T09:42:20;13.90;95.60
73572;DHT22;61854;48.510;-2.770;2023-02-17T09:45:09;14.00;94.70
73572;DHT22;61854;48.510;-2.770;2023-02-17T09:47:39;14.00;94.70
73572;DHT22;61854;48.510;-2.770;2023-02-17T09:50:14;13.90;94.80
73572;DHT22;61854;48.510;-2.770;2023-02-17T09:53:29;13.90;94.90
73572;DHT22;61854;48.510;-2.770;2023-02-17T09:55:49;13.80;94.70
73572;DHT22;61854;48.510;-2.770;2023-02-17T09:58:26;13.80;94.80
73572;DHT22;61854;48.510;-2.770;2023-02-17T10:00:56;13.80;95.00
73572;DHT22;61854;48.510;-2.770;2023-02-17T10:03:27;13.80;95.20
73572;DHT22;61854;48.510;-2.770;2023-02-17T10:06:15;13.90;95.00
73572;DHT22;61854;48.510;-2.770;2023-02-17T10:08:55;14.10;94.70
73572;DHT22;61854;48.510;-2.770;2023-02-17T10:14:16;14.30;94.00
73572;DHT22;61854;48.510;-2.770;2023-02-17T10:16:48;14.30;93.40
73572;DHT22;61854;48.510;-2.770;2023-02-17T10:19:28;14.30;93.70
73572;DHT22;61854;48.510;-2.770;2023-02-17T10:22:15;14.40;93.30
73572;DHT22;61854;48.510;-2.770;2023-02-17T10:24:41;14.40;93.10
73572;DHT22;61854;48.510;-2.770;2023-02-17T10:32:53;14.50;93.00
73572;DHT22;61854;48.510;-2.770;2023-02-17T10:35:55;14.60;92.80
73572;DHT22;61854;48.510;-2.770;2023-02-17T10:38:48;14.70;92.60
73572;DHT22;61854;48.510;-2.770;2023-02-17T10:41:21;14.70;92.20
73572;DHT22;61854;48.510;-2.770;2023-02-17T10:43:49;14.70;92.20
73572;DHT22;61854;48.510;-2.770;2023-02-17T10:46:18;14.80;92.00
73572;DHT22;61854;48.510;-2.770;2023-02-17T10:48:52;14.80;91.90
73572;DHT22;61854;48.510;-2.770;2023-02-17T10:51:24;14.90;91.50
73572;DHT22;61854;48.510;-2.770;2023-02-17T10:53:59;14.90;91.90
73572;DHT22;61854;48.510;-2.770;2023-02-17T10:56:35;14.80;92.00
73572;DHT22;61854;48.510;-2.770;2023-02-17T10:59:25;14.80;92.00
73572;DHT22;61854;48.510;-2.770;2023-02-17T11:01:57;14.90;91.80
73572;DHT22;61854;48.510;-2.770;2023-02-17T11:04:25;14.80;91.80
73572;DHT22;61854;48.510;-2.770;2023-02-17T11:06:52;14.60;92.00
73572;DHT22;61854;48.510;-2.770;2023-02-17T11:09:25;14.60;92.00
73572;DHT22;61854;48.510;-2.770;2023-02-17T11:12:03;14.50;92.40
73572;DHT22;61854;48.510;-2.770;2023-02-17T11:14:32;14.50;92.80
73572;DHT22;61854;48.510;-2.770;2023-02-17T11:17:00;14.50;93.00
73572;DHT22;61854;48.510;-2.770;2023-02-17T11:19:33;14.40;93.10
73572;DHT22;61854;48.510;-2.770;2023-02-17T11:22:01;14.50;93.00
73572;DHT22;61854;48.510;-2.770;2023-02-17T11:24:34;14.50;93.00
73572;DHT22;61854;48.510;-2.770;2023-02-17T11:27:08;14.50;92.90
73572;DHT22;61854;48.510;-2.770;2023-02-17T11:29:37;14.50;92.80
73572;DHT22;61854;48.510;-2.770;2023-02-17T11:34:35;14.70;92.10
73572;DHT22;61854;48.510;-2.770;2023-02-17T11:37:22;14.80;91.50
73572;DHT22;61854;48.510;-2.770;2023-02-17T11:39:52;14.80;91.10
73572;DHT22;61854;48.510;-2.770;2023-02-17T11:42:23;14.80;91.00
73572;DHT22;61854;48.510;-2.770;2023-02-17T11:44:49;14.90;90.80
73572;DHT22;61854;48.510;-2.770;2023-02-17T11:47:47;14.90;91.00
73572;DHT22;61854;48.510;-2.770;2023-02-17T11:50:28;15.00;90.60
73572;DHT22;61854;48.510;-2.770;2023-02-17T12:06:21;14.80;90.90
73572;DHT22;61854;48.510;-2.770;2023-02-17T12:19:41;14.70;91.20
73572;DHT22;61854;48.510;-2.770;2023-02-17T12:25:10;14.80;91.00
73572;DHT22;61854;48.510;-2.770;2023-02-17T12:30:26;15.00;90.70
73572;DHT22;61854;48.510;-2.770;2023-02-17T12:33:26;15.00;90.30
73572;DHT22;61854;48.510;-2.770;2023-02-17T12:36:11;15.00;90.10
73572;DHT22;61854;48.510;-2.770;2023-02-17T12:38:47;15.00;90.00
73572;DHT22;61854;48.510;-2.770;2023-02-17T12:41:18;14.90;90.40
73572;DHT22;61854;48.510;-2.770;2023-02-17T12:46:24;14.80;90.50
73572;DHT22;61854;48.510;-2.770;2023-02-17T12:49:12;14.80;90.60
73572;DHT22;61854;48.510;-2.770;2023-02-17T12:54:21;14.70;91.10
73572;DHT22;61854;48.510;-2.770;2023-02-17T12:56:56;14.60;90.90
73572;DHT22;61854;48.510;-2.770;2023-02-17T12:59:36;14.70;90.80
73572;DHT22;61854;48.510;-2.770;2023-02-17T13:02:16;14.60;90.80
73572;DHT22;61854;48.510;-2.770;2023-02-17T13:04:43;14.60;90.90
73572;DHT22;61854;48.510;-2.770;2023-02-17T13:07:15;14.70;90.60
73572;DHT22;61854;48.510;-2.770;2023-02-17T13:09:45;14.70;90.50
73572;DHT22;61854;48.510;-2.770;2023-02-17T13:12:32;14.70;90.20
73572;DHT22;61854;48.510;-2.770;2023-02-17T13:15:04;14.80;90.00
73572;DHT22;61854;48.510;-2.770;2023-02-17T13:17:39;14.80;89.80
73572;DHT22;61854;48.510;-2.770;2023-02-17T13:22:43;15.00;88.70
73572;DHT22;61854;48.510;-2.770;2023-02-17T13:25:25;15.00;88.20
73572;DHT22;61854;48.510;-2.770;2023-02-17T13:27:51;15.00;87.40
73572;DHT22;61854;48.510;-2.770;2023-02-17T13:32:43;15.10;87.20
73572;DHT22;61854;48.510;-2.770;2023-02-17T13:37:51;15.30;86.30
73572;DHT22;61854;48.510;-2.770;2023-02-17T13:42:47;15.30;84.90
73572;DHT22;61854;48.510;-2.770;2023-02-17T13:47:57;15.40;85.10
73572;DHT22;61854;48.510;-2.770;2023-02-17T13:52:54;15.20;86.30
73572;DHT22;61854;48.510;-2.770;2023-02-17T13:55:20;15.10;86.30
73572;DHT22;61854;48.510;-2.770;2023-02-17T13:57:56;14.90;86.60
73572;DHT22;61854;48.510;-2.770;2023-02-17T14:00:27;14.80;87.30
73572;DHT22;61854;48.510;-2.770;2023-02-17T14:03:19;14.70;88.00
73572;DHT22;61854;48.510;-2.770;2023-02-17T14:05:54;14.60;88.50
73572;DHT22;61854;48.510;-2.770;2023-02-17T14:08:34;14.50;88.60
73572;DHT22;61854;48.510;-2.770;2023-02-17T14:11:12;14.50;88.10
73572;DHT22;61854;48.510;-2.770;2023-02-17T14:13:40;14.50;87.60
73572;DHT22;61854;48.510;-2.770;2023-02-17T14:16:06;14.50;87.80
73572;DHT22;61854;48.510;-2.770;2023-02-17T14:18:38;14.60;86.90
73572;DHT22;61854;48.510;-2.770;2023-02-17T14:21:10;14.60;86.60
73572;DHT22;61854;48.510;-2.770;2023-02-17T14:23:50;14.60;87.00
73572;DHT22;61854;48.510;-2.770;2023-02-17T14:26:37;14.60;87.40
73572;DHT22;61854;48.510;-2.770;2023-02-17T14:29:05;14.60;87.90
73572;DHT22;61854;48.510;-2.770;2023-02-17T14:31:54;14.50;87.90
73572;DHT22;61854;48.510;-2.770;2023-02-17T14:36:46;14.50;87.80
73572;DHT22;61854;48.510;-2.770;2023-02-17T14:39:14;14.50;88.20
73572;DHT22;61854;48.510;-2.770;2023-02-17T14:41:40;14.60;87.40
73572;DHT22;61854;48.510;-2.770;2023-02-17T14:44:06;14.60;86.90
73572;DHT22;61854;48.510;-2.770;2023-02-17T14:46:33;14.70;86.60
73572;DHT22;61854;48.510;-2.770;2023-02-17T14:49:00;14.60;87.30
73572;DHT22;61854;48.510;-2.770;2023-02-17T14:51:32;14.50;87.90
73572;DHT22;61854;48.510;-2.770;2023-02-17T14:54:01;14.50;88.60
73572;DHT22;61854;48.510;-2.770;2023-02-17T14:56:40;14.50;88.80
73572;DHT22;61854;48.510;-2.770;2023-02-17T14:59:09;14.50;89.00
73572;DHT22;61854;48.510;-2.770;2023-02-17T15:01:34;14.40;89.00
73572;DHT22;61854;48.510;-2.770;2023-02-17T15:04:00;14.40;88.50
73572;DHT22;61854;48.510;-2.770;2023-02-17T15:06:37;14.40;88.50
73572;DHT22;61854;48.510;-2.770;2023-02-17T15:09:11;14.30;88.50
73572;DHT22;61854;48.510;-2.770;2023-02-17T15:11:38;14.40;88.30
73572;DHT22;61854;48.510;-2.770;2023-02-17T15:14:05;14.50;87.60
73572;DHT22;61854;48.510;-2.770;2023-02-17T15:16:31;14.50;86.60
73572;DHT22;61854;48.510;-2.770;2023-02-17T15:18:57;14.50;85.90
73572;DHT22;61854;48.510;-2.770;2023-02-17T15:23:51;14.60;84.50
73572;DHT22;61854;48.510;-2.770;2023-02-17T15:26:17;14.60;84.70
73572;DHT22;61854;48.510;-2.770;2023-02-17T15:28:42;14.60;84.40
73572;DHT22;61854;48.510;-2.770;2023-02-17T15:31:11;14.70;83.60
73572;DHT22;61854;48.510;-2.770;2023-02-17T15:33:37;14.70;82.60
73572;DHT22;61854;48.510;-2.770;2023-02-17T15:36:03;14.70;82.50
73572;DHT22;61854;48.510;-2.770;2023-02-17T15:38:29;14.80;83.40
73572;DHT22;61854;48.510;-2.770;2023-02-17T15:40:54;15.30;82.40
73572;DHT22;61854;48.510;-2.770;2023-02-17T15:43:32;15.40;81.70
73572;DHT22;61854;48.510;-2.770;2023-02-17T15:45:58;15.40;81.70
73572;DHT22;61854;48.510;-2.770;2023-02-17T15:48:26;15.30;81.40
73572;DHT22;61854;48.510;-2.770;2023-02-17T15:50:54;15.20;81.90
73572;DHT22;61854;48.510;-2.770;2023-02-17T15:53:20;15.00;82.50
73572;DHT22;61854;48.510;-2.770;2023-02-17T15:55:46;15.00;83.80
73572;DHT22;61854;48.510;-2.770;2023-02-17T15:58:15;15.00;82.80
73572;DHT22;61854;48.510;-2.770;2023-02-17T16:00:42;14.90;82.10
73572;DHT22;61854;48.510;-2.770;2023-02-17T16:03:11;14.80;83.40
73572;DHT22;61854;48.510;-2.770;2023-02-17T16:05:38;14.70;82.00
73572;DHT22;61854;48.510;-2.770;2023-02-17T16:08:04;14.80;81.10
73572;DHT22;61854;48.510;-2.770;2023-02-17T16:10:30;14.80;80.20
73572;DHT22;61854;48.510;-2.770;2023-02-17T16:12:58;14.80;80.40
73572;DHT22;61854;48.510;-2.770;2023-02-17T16:15:27;14.70;80.70
73572;DHT22;61854;48.510;-2.770;2023-02-17T16:17:53;14.60;81.10
73572;DHT22;61854;48.510;-2.770;2023-02-17T16:22:46;14.50;82.10
73572;DHT22;61854;48.510;-2.770;2023-02-17T16:25:13;14.40;82.60
73572;DHT22;61854;48.510;-2.770;2023-02-17T16:27:41;14.40;83.00
73572;DHT22;61854;48.510;-2.770;2023-02-17T16:30:31;14.30;83.00
73572;DHT22;61854;48.510;-2.770;2023-02-17T16:32:57;14.30;83.70
73572;DHT22;61854;48.510;-2.770;2023-02-17T16:35:25;14.20;84.30
73572;DHT22;61854;48.510;-2.770;2023-02-17T16:37:57;14.20;84.80
73572;DHT22;61854;48.510;-2.770;2023-02-17T16:40:27;14.20;85.00
73572;DHT22;61854;48.510;-2.770;2023-02-17T16:42:53;14.10;84.80
73572;DHT22;61854;48.510;-2.770;2023-02-17T16:45:21;14.20;85.10
73572;DHT22;61854;48.510;-2.770;2023-02-17T16:47:50;14.10;85.00
73572;DHT22;61854;48.510;-2.770;2023-02-17T16:50:36;14.00;84.70
73572;DHT22;61854;48.510;-2.770;2023-02-17T16:53:04;14.00;85.00
73572;DHT22;61854;48.510;-2.770;2023-02-17T16:55:33;14.00;84.90
73572;DHT22;61854;48.510;-2.770;2023-02-17T16:58:00;14.00;84.40